Turaif, Saudi Arabia
Current Conditions -  °F | °C
As of 8:00 PM on Monday 24 Nov 2014 (Local Time) from OETR Reporting Station
Moderate Rain Moderate Rain  
Wind Chill: 50°   Ceiling: 3000
Heat Index: 50°   Visibility: 4mi
Dew Point: 48°   Wind: 7mph
Humidity: 94%   Direction: 150°SSE
Pressure: 29.91"   Gusts: NA
Location:  31.69°N, 38.73°E
Report Text: OETR 241700Z 15006KT 6000 RA BKN030 10/09 Q1013
Loading
Personal Weather Stations






























Interactive Weather Map New forecast layout! Learn more

10-Day Weather Forecast

Advertisements
Track Severe Weather on mobile